New Orleans NAS, Louisiana
Current Conditions -  °F | °C
As of 3:55 AM on Thursday 27 Nov 2014 (Local Time) from KNBG Reporting Station
Clear Clear  
Wind Chill: 12°   Ceiling: Unl
Heat Index: 12°   Visibility: NA
Dew Point:   Wind: 5mph
Humidity: 69%   Direction: 320°NW
Pressure: 30.32"   Gusts: NA
Location:  29.83°N, 90.02°W
Report Text: KNBG 270955Z AUTO 32004KT CLR 12/07 A3032 RMK AO2 SLP266 T01220067 TSNO $
Loading
Personal Weather Stations






























Interactive Weather Map New forecast layout! Learn more

10-Day Weather Forecast

Advertisements
Track Severe Weather on mobile